Time;durP1;ratioP1;P1;durP2;ratioP2;P2;SDS_P1;SDS_P2;PMS_P1;PMS_P2;Temp;Humidity;BMP_temperature;BMP_pressure;BME280_temperature;BME280_humidity;BME280_pressure;Samples;Min_cycle;Max_cycle;Signal;HPM_P1;HPM_P2
2022/12/14 00:01:17;;;;;;;23.23;11.23;;;;;;;-141.28;100.00;51806.53;5114034;28;20967;-75
2022/12/14 00:03:45;;;;;;;17.00;10.30;;;;;;;-141.28;100.00;51834.03;5100962;28;20853;-76
2022/12/14 00:06:15;;;;;;;21.37;11.40;;;;;;;-141.28;100.00;51814.41;5093951;28;20476;-75
2022/12/14 00:08:43;;;;;;;17.60;9.93;;;;;;;-141.28;100.00;51735.84;5108085;28;20480;-76
2022/12/14 00:11:12;;;;;;;18.87;10.87;;;;;;;-141.28;100.00;51739.78;5094304;28;20836;-78
2022/12/14 00:13:40;;;;;;;16.77;9.43;;;;;;;-141.28;100.00;51767.28;5092756;28;20510;-76
2022/12/14 00:16:09;;;;;;;18.70;10.23;;;;;;;-141.28;100.00;51763.34;5093400;28;20882;-75
2022/12/14 00:18:38;;;;;;;15.03;8.43;;;;;;;-141.28;100.00;51720.16;5099386;28;20566;-77
2022/12/14 00:21:06;;;;;;;15.80;8.97;;;;;;;-141.28;100.00;51704.44;5113920;28;20449;-76
2022/12/14 00:23:33;;;;;;;14.87;9.00;;;;;;;-141.28;100.00;51739.78;5093476;28;20442;-78
2022/12/14 00:26:08;;;;;;;14.13;8.50;;;;;;;-141.28;100.00;51722.09;5106960;28;20461;-76
2022/12/14 00:28:36;;;;;;;15.27;8.80;;;;;;;-141.28;100.00;51735.84;5093689;28;20493;-79
2022/12/14 00:31:03;;;;;;;14.10;7.97;;;;;;;-141.28;100.00;51747.63;5094611;28;20442;-76
2022/12/14 00:33:30;;;;;;;15.40;9.20;;;;;;;-141.28;100.00;51769.25;5114797;28;20445;-76
2022/12/14 00:36:01;;;;;;;15.47;9.20;;;;;;;-141.28;100.00;51735.84;5098237;28;20815;-78
2022/12/14 00:38:29;;;;;;;7.70;4.47;;;;;;;-141.28;100.00;51747.63;5093088;28;20457;-76
2022/12/14 00:40:58;;;;;;;8.70;5.57;;;;;;;-141.28;100.00;51739.78;5105976;28;20896;-75
2022/12/14 00:43:25;;;;;;;26.57;7.30;;;;;;;-141.28;100.00;51712.28;5105733;28;20456;-75
2022/12/14 00:45:52;;;;;;;9.43;5.60;;;;;;;-141.28;100.00;51712.28;5093918;28;20499;-75
2022/12/14 00:48:21;;;;;;;14.23;7.17;;;;;;;-141.28;100.00;51771.19;5092739;28;21115;-75
2022/12/14 00:50:49;;;;;;;10.30;5.33;;;;;;;-141.28;100.00;51714.25;5100283;28;20449;-75
2022/12/14 00:53:18;;;;;;;11.40;6.57;;;;;;;-141.28;100.00;51759.41;5110143;28;20445;-76
2022/12/14 00:55:48;;;;;;;13.47;7.00;;;;;;;-141.28;100.00;51712.28;5112791;28;20444;-73
2022/12/14 00:58:17;;;;;;;13.10;7.27;;;;;;;-141.28;100.00;51779.06;5107237;28;20499;-75
2022/12/14 01:00:46;;;;;;;11.60;5.77;;;;;;;-141.28;100.00;51763.34;5106515;28;20955;-77
2022/12/14 01:03:13;;;;;;;13.13;6.57;;;;;;;-141.28;100.00;51837.97;5094129;28;20456;-76
2022/12/14 01:05:40;;;;;;;10.07;5.60;;;;;;;-141.28;100.00;51830.09;5098320;28;20453;-75
2022/12/14 01:08:08;;;;;;;14.57;7.80;;;;;;;-141.28;100.00;51855.63;5117353;28;20469;-74
2022/12/14 01:10:40;;;;;;;12.90;7.37;;;;;;;-141.28;100.00;51904.72;5118315;28;20437;-76
2022/12/14 01:13:07;;;;;;;29.37;11.53;;;;;;;-141.28;100.00;51991.13;5136940;28;20429;-76
2022/12/14 01:15:35;;;;;;;37.03;15.80;;;;;;;-141.28;100.00;52038.25;5121688;28;20447;-75
2022/12/14 01:18:02;;;;;;;36.87;15.77;;;;;;;-141.28;100.00;52191.44;5106861;28;20519;-74
2022/12/14 01:20:29;;;;;;;17.63;9.50;;;;;;;-141.28;100.00;52185.56;5093367;28;20980;-76
2022/12/14 01:22:57;;;;;;;9.00;5.90;;;;;;;-141.28;100.00;52220.91;5092744;28;20442;-78
2022/12/14 01:25:24;;;;;;;13.53;8.00;;;;;;;-141.28;100.00;52328.91;5094167;28;20449;-76
2022/12/14 01:27:53;;;;;;;12.23;7.27;;;;;;;-141.28;100.00;52434.97;5094931;28;20995;-77
2022/12/14 01:30:24;;;;;;;15.03;8.47;;;;;;;-141.28;100.00;52411.41;5095066;28;20483;-75
2022/12/14 01:32:52;;;;;;;10.47;5.53;;;;;;;-141.28;100.00;52544.97;5095147;28;21021;-77
2022/12/14 01:35:19;;;;;;;10.10;5.63;;;;;;;-141.28;100.00;52458.53;5093778;28;20465;-76
2022/12/14 01:37:48;;;;;;;13.07;6.17;;;;;;;-141.28;100.00;52552.81;5093437;28;20449;-78
2022/12/14 01:40:16;;;;;;;8.67;4.83;;;;;;;-141.28;100.00;52641.19;5107012;28;20458;-78
2022/12/14 01:42:44;;;;;;;8.20;5.23;;;;;;;-141.28;100.00;52686.38;5092339;28;20438;-75
2022/12/14 01:45:21;;;;;;;14.63;8.70;;;;;;;-141.28;100.00;52721.72;5092564;28;20444;-76
2022/12/14 01:47:54;;;;;;;15.53;9.07;;;;;;;-141.28;100.00;52725.66;5107386;28;20444;-78
2022/12/14 01:50:28;;;;;;;14.87;7.20;;;;;;;-141.28;100.00;52761.00;5096519;28;20458;-75
2022/12/14 01:52:58;;;;;;;12.47;7.23;;;;;;;-141.28;100.00;52680.47;5095081;28;20449;-73
2022/12/14 01:55:29;;;;;;;9.70;5.43;;;;;;;-141.28;100.00;52816.00;5104371;28;20476;-73
2022/12/14 01:58:03;;;;;;;8.10;5.40;;;;;;;-141.28;100.00;52871.00;5108616;28;20491;-75
2022/12/14 02:00:31;;;;;;;10.33;6.63;;;;;;;-141.28;100.00;52904.41;5091869;28;20441;-77
2022/12/14 02:03:04;;;;;;;11.53;6.23;;;;;;;-141.28;100.00;52935.81;5091653;28;20442;-77
2022/12/14 02:05:35;;;;;;;16.03;7.07;;;;;;;-141.28;100.00;52975.13;5091977;28;20449;-78
2022/12/14 02:08:04;;;;;;;10.77;6.30;;;;;;;-141.28;100.00;52969.22;5091555;28;20450;-76
2022/12/14 02:10:32;;;;;;;9.20;5.17;;;;;;;-141.28;100.00;53041.91;5091712;28;20449;-77
2022/12/14 02:13:05;;;;;;;11.90;6.87;;;;;;;-141.28;100.00;53075.28;5092260;28;20449;-75
2022/12/14 02:15:34;;;;;;;12.30;7.60;;;;;;;-141.28;100.00;52961.38;5092204;28;20445;-79
2022/12/14 02:18:06;;;;;;;11.00;6.77;;;;;;;-141.28;100.00;53087.09;5112197;28;20493;-76
2022/12/14 02:20:43;;;;;;;14.77;7.90;;;;;;;-141.28;100.00;53067.44;5104920;28;20450;-77
2022/12/14 02:23:42;;;;;;;16.70;7.50;;;;;;;-141.28;100.00;53063.50;5091532;28;20445;-79
2022/12/14 02:26:32;;;;;;;11.57;7.03;;;;;;;-141.28;100.00;52949.56;5091874;28;20867;-74
2022/12/14 02:29:32;;;;;;;11.87;7.03;;;;;;;-141.28;100.00;52808.16;5091464;28;20584;-77
2022/12/14 02:32:11;;;;;;;14.13;6.10;;;;;;;-141.28;100.00;52816.00;5091527;28;20445;-76
2022/12/14 02:34:51;;;;;;;11.00;7.23;;;;;;;-141.28;100.00;52800.28;5092010;28;20491;-77
2022/12/14 02:37:26;;;;;;;12.53;6.97;;;;;;;-141.28;100.00;52792.44;5094717;28;20498;-76
2022/12/14 02:40:08;;;;;;;12.07;7.03;;;;;;;-141.28;100.00;52790.47;5095868;28;20448;-76
2022/12/14 02:42:47;;;;;;;12.13;7.27;;;;;;;-141.28;100.00;52792.44;5095474;28;20445;-77
2022/12/14 02:45:26;;;;;;;11.60;7.00;;;;;;;-141.28;100.00;52688.34;5106800;28;20448;-75
2022/12/14 02:47:59;;;;;;;13.87;6.93;;;;;;;-141.28;100.00;52615.66;5109161;28;20441;-76
2022/12/14 02:50:35;;;;;;;13.17;7.33;;;;;;;-141.28;100.00;52619.59;5095036;28;21074;-76
2022/12/14 02:53:13;;;;;;;12.83;7.00;;;;;;;-141.28;100.00;52713.88;5095314;28;20574;-76
2022/12/14 02:55:45;;;;;;;13.30;7.43;;;;;;;-141.28;100.00;52674.59;5095065;28;20892;-74
2022/12/14 02:58:18;;;;;;;11.40;6.87;;;;;;;-141.28;100.00;52660.84;5102255;28;20518;-75
2022/12/14 03:00:48;;;;;;;12.03;7.23;;;;;;;-141.28;100.00;52599.94;5096863;28;20477;-76
2022/12/14 03:03:16;;;;;;;15.90;7.90;;;;;;;-141.28;100.00;52537.09;5108430;28;20440;-74
2022/12/14 03:05:43;;;;;;;17.67;7.30;;;;;;;-141.28;100.00;51947.94;5115468;28;20449;-79
2022/12/14 03:08:14;;;;;;;11.77;6.87;;;;;;;-141.28;100.00;52535.13;5102802;28;20539;-75
2022/12/14 03:10:47;;;;;;;11.53;7.13;;;;;;;-141.28;100.00;52474.25;5102456;28;20453;-76
2022/12/14 03:13:19;;;;;;;12.43;6.77;;;;;;;-141.28;100.00;52344.63;5094860;28;20825;-77
2022/12/14 03:15:59;;;;;;;10.97;6.33;;;;;;;-141.28;100.00;51951.84;5106102;28;20453;-74
2022/12/14 03:18:31;;;;;;;11.03;7.00;;;;;;;-141.28;100.00;52293.56;5108243;28;20944;-76
2022/12/14 03:21:00;;;;;;;13.10;6.57;;;;;;;-141.28;100.00;52236.63;5095203;28;20453;-75
2022/12/14 03:23:32;;;;;;;13.20;6.53;;;;;;;-141.28;100.00;52270.00;5115053;28;20455;-76
2022/12/14 03:26:05;;;;;;;10.47;6.90;;;;;;;-141.28;100.00;52163.94;5111914;28;20464;-74
2022/12/14 03:28:41;;;;;;;9.10;5.63;;;;;;;-141.28;100.00;52105.03;5107974;28;20980;-80
2022/12/14 03:31:15;;;;;;;8.73;5.80;;;;;;;-141.28;100.00;52044.16;5095080;28;20453;-75
2022/12/14 03:33:47;;;;;;;8.60;6.03;;;;;;;-141.28;100.00;52010.78;5095329;28;20448;-76
2022/12/14 03:36:19;;;;;;;11.07;7.37;;;;;;;-141.28;100.00;51975.44;5098535;28;20847;-77
2022/12/14 03:38:50;;;;;;;11.70;7.37;;;;;;;-141.28;100.00;51932.22;5103254;28;20448;-74
2022/12/14 03:41:28;;;;;;;12.23;7.13;;;;;;;-141.28;100.00;51944.00;5110564;28;20438;-75
2022/12/14 03:44:16;;;;;;;12.67;7.17;;;;;;;-141.28;100.00;51853.69;5111099;28;20451;-76
2022/12/14 03:46:55;;;;;;;8.47;6.30;;;;;;;-141.28;100.00;51794.75;5106165;28;20441;-74
2022/12/14 03:49:35;;;;;;;10.97;6.67;;;;;;;-141.28;100.00;51759.41;5104846;28;20568;-73
2022/12/14 03:52:08;;;;;;;12.93;6.47;;;;;;;-141.28;100.00;51757.47;5094654;28;20536;-76
2022/12/14 03:54:47;;;;;;;9.47;6.03;;;;;;;-141.28;100.00;51706.41;5104310;28;20445;-75
2022/12/14 03:57:21;;;;;;;11.03;6.40;;;;;;;-141.28;100.00;51600.38;5107168;28;20452;-74
2022/12/14 03:59:54;;;;;;;11.03;6.60;;;;;;;-141.28;100.00;51665.16;5106480;28;20445;-74
2022/12/14 04:02:29;;;;;;;11.63;6.43;;;;;;;-141.28;100.00;51568.94;5113005;28;20445;-75
2022/12/14 04:05:03;;;;;;;10.00;5.93;;;;;;;-141.28;100.00;51547.34;5096376;28;20524;-78
2022/12/14 04:07:37;;;;;;;14.33;6.73;;;;;;;-141.28;100.00;51519.88;5099302;28;20817;-78
2022/12/14 04:18:55;;;;;;;11.43;7.00;;;;;;;-141.28;100.00;51459.00;5094342;28;20485;-74
2022/12/14 04:18:58;;;;;;;13.23;6.40;;;;;;;-141.28;100.00;51270.50;5101297;28;20452;-79
2022/12/14 04:21:32;;;;;;;11.80;6.27;;;;;;;-141.28;100.00;51178.25;5102742;28;20487;-76
2022/12/14 04:26:56;;;;;;;7.87;4.43;;;;;;;-141.28;100.00;51099.72;5078608;28;20490;-75
2022/12/14 04:32:19;;;;;;;9.93;5.43;;;;;;;-141.28;100.00;51123.28;5093416;28;20429;-76
2022/12/14 04:34:51;;;;;;;8.50;4.83;;;;;;;-141.28;100.00;51182.16;5093201;28;20449;-75
2022/12/14 04:37:23;;;;;;;12.83;6.30;;;;;;;-141.28;100.00;51150.75;5093557;28;20441;-75
2022/12/14 04:39:54;;;;;;;12.83;5.17;;;;;;;-141.28;100.00;51191.97;5106680;28;20457;-78
2022/12/14 04:42:26;;;;;;;9.23;5.70;;;;;;;-141.28;100.00;51221.44;5096315;28;20450;-76
2022/12/14 04:44:57;;;;;;;11.53;6.20;;;;;;;-141.28;100.00;51246.97;5096844;28;20446;-76
2022/12/14 04:47:30;;;;;;;9.07;5.27;;;;;;;-141.28;100.00;51266.59;5093132;28;20446;-76
2022/12/14 04:50:03;;;;;;;7.10;3.93;;;;;;;-141.28;100.00;51237.13;5092856;28;20485;-75
2022/12/14 04:52:34;;;;;;;12.23;7.43;;;;;;;-141.28;100.00;51237.13;5092928;28;20879;-75
2022/12/14 04:55:07;;;;;;;14.03;7.07;;;;;;;-141.28;100.00;51268.56;5092751;28;20445;-78
2022/12/14 04:57:41;;;;;;;9.73;5.40;;;;;;;-141.28;100.00;51262.66;5110208;28;20452;-76
2022/12/14 05:00:10;;;;;;;9.77;5.47;;;;;;;-141.28;100.00;51225.34;5104129;28;20524;-78
2022/12/14 05:02:51;;;;;;;14.17;8.37;;;;;;;-141.28;100.00;51252.84;5109425;28;20448;-81
2022/12/14 05:05:27;;;;;;;14.10;5.60;;;;;;;-141.28;100.00;51217.50;5110000;28;20448;-77
2022/12/14 05:08:00;;;;;;;11.03;5.47;;;;;;;-141.28;100.00;51245.00;5094794;28;20469;-79
2022/12/14 05:10:37;;;;;;;8.63;5.50;;;;;;;-141.28;100.00;51211.63;5092366;28;20489;-75
2022/12/14 05:13:09;;;;;;;6.30;3.53;;;;;;;-141.28;100.00;51213.56;5100887;28;20444;-78
2022/12/14 05:15:41;;;;;;;7.80;5.03;;;;;;;-141.28;100.00;51156.66;5112038;28;20881;-78
2022/12/14 05:18:09;;;;;;;10.23;5.90;;;;;;;-141.28;100.00;51241.06;5112969;28;20444;-75
2022/12/14 05:20:38;;;;;;;6.43;3.50;;;;;;;-141.28;100.00;51256.78;5095924;28;20827;-77
2022/12/14 05:23:05;;;;;;;8.40;5.33;;;;;;;-141.28;100.00;51288.19;5103055;28;20452;-74
2022/12/14 05:25:32;;;;;;;10.30;5.13;;;;;;;-141.28;100.00;51278.38;5099336;28;20453;-76
2022/12/14 05:27:59;;;;;;;9.13;5.23;;;;;;;-141.28;100.00;51292.13;5101468;28;20478;-76
2022/12/14 05:30:27;;;;;;;10.27;5.70;;;;;;;-141.28;100.00;51270.50;5109070;28;20592;-75
2022/12/14 05:32:54;;;;;;;7.43;4.53;;;;;;;-141.28;100.00;51241.06;5100924;28;20499;-75
2022/12/14 05:35:22;;;;;;;7.47;4.43;;;;;;;-141.28;100.00;51278.38;5092138;28;20833;-75
2022/12/14 05:37:51;;;;;;;11.47;6.60;;;;;;;-141.28;100.00;51260.69;5092235;28;20450;-77
2022/12/14 05:40:18;;;;;;;9.53;6.30;;;;;;;-141.28;100.00;51201.81;5097369;28;20817;-77
2022/12/14 05:42:45;;;;;;;6.87;4.43;;;;;;;-141.28;100.00;51268.56;5100428;28;20445;-77
2022/12/14 05:45:14;;;;;;;9.60;5.43;;;;;;;-141.28;100.00;51270.50;5097038;28;20501;-75
2022/12/14 05:47:42;;;;;;;11.30;6.50;;;;;;;-141.28;100.00;51276.41;5098755;28;20453;-79
2022/12/14 05:50:09;;;;;;;12.17;8.47;;;;;;;-141.28;100.00;51311.75;5097656;28;20484;-77
2022/12/14 05:52:36;;;;;;;11.37;7.33;;;;;;;-141.28;100.00;51292.13;5112069;28;20452;-75
2022/12/14 05:55:06;;;;;;;11.17;6.30;;;;;;;-141.28;100.00;51349.06;5110829;28;20947;-75
2022/12/14 05:57:33;;;;;;;11.13;7.30;;;;;;;-141.28;100.00;51402.06;5112273;28;20445;-76
2022/12/14 06:00:02;;;;;;;15.70;8.43;;;;;;;-141.28;100.00;51512.00;5096245;28;20465;-74
2022/12/14 06:02:31;;;;;;;14.00;5.93;;;;;;;-141.28;100.00;51551.28;5100944;28;20536;-75
2022/12/14 06:05:01;;;;;;;14.27;6.43;;;;;;;-141.28;100.00;51641.59;5107401;28;20449;-74
2022/12/14 06:07:28;;;;;;;14.43;8.47;;;;;;;-141.28;100.00;51728.00;5105956;28;20456;-74
2022/12/14 06:09:56;;;;;;;12.87;7.17;;;;;;;-141.28;100.00;51822.25;5109712;28;20531;-79
2022/12/14 06:12:25;;;;;;;18.47;10.93;;;;;;;-141.28;100.00;51881.16;5100838;28;20448;-73
2022/12/14 06:14:51;;;;;;;16.53;9.90;;;;;;;-141.28;100.00;51932.22;5115625;28;20471;-74
2022/12/14 06:17:19;;;;;;;21.43;9.60;;;;;;;-141.28;100.00;52081.47;5113424;28;20433;-74
2022/12/14 06:19:46;;;;;;;11.77;6.50;;;;;;;-141.28;100.00;52134.50;5123500;28;20445;-73
2022/12/14 06:22:13;;;;;;;13.77;6.13;;;;;;;-141.28;100.00;52205.19;5124174;28;20998;-74
2022/12/14 06:24:41;;;;;;;19.00;10.90;;;;;;;-141.28;100.00;52356.41;5113977;28;20444;-73
2022/12/14 06:27:08;;;;;;;22.37;11.20;;;;;;;-141.28;100.00;52503.72;5105217;28;20469;-76
2022/12/14 06:29:37;;;;;;;24.97;12.97;;;;;;;-141.28;100.00;52434.97;5112328;28;21018;-75
2022/12/14 06:32:04;;;;;;;18.80;8.57;;;;;;;-141.28;100.00;52698.16;5117624;28;20453;-75
2022/12/14 06:34:32;;;;;;;21.20;11.57;;;;;;;-141.28;100.00;52144.31;5115576;28;20479;-77
2022/12/14 06:36:59;;;;;;;27.27;13.77;;;;;;;-141.28;100.00;52778.69;5101182;28;20947;-74
2022/12/14 06:39:26;;;;;;;30.07;16.73;;;;;;;-141.28;100.00;52912.25;5104292;28;20457;-76
2022/12/14 06:41:53;;;;;;;37.60;17.97;;;;;;;-141.28;100.00;52988.88;5107842;28;20495;-76
2022/12/14 06:44:21;;;;;;;30.17;13.90;;;;;;;-141.28;100.00;53020.28;5095711;28;20441;-76
2022/12/14 06:46:49;;;;;;;31.73;16.40;;;;;;;-141.28;100.00;53116.56;5109748;28;21024;-76
2022/12/14 06:49:17;;;;;;;24.00;14.50;;;;;;;-141.28;100.00;53201.03;5110284;28;20447;-74
2022/12/14 06:51:44;;;;;;;29.97;16.80;;;;;;;-141.28;100.00;52959.41;5108556;28;20491;-77
2022/12/14 06:54:13;;;;;;;31.40;17.23;;;;;;;-141.28;100.00;53254.06;5095305;28;20448;-76
2022/12/14 06:56:41;;;;;;;30.80;18.07;;;;;;;-141.28;100.00;53252.09;5094838;28;20447;-75
2022/12/14 06:59:08;;;;;;;40.70;21.03;;;;;;;-141.28;100.00;53295.31;5107973;28;20451;-76
2022/12/14 07:01:36;;;;;;;33.27;15.37;;;;;;;-141.28;100.00;53307.09;5109683;28;20473;-78
2022/12/14 07:04:06;;;;;;;21.37;10.90;;;;;;;-141.28;100.00;53314.97;5094878;28;20562;-75
2022/12/14 07:06:35;;;;;;;27.90;15.97;;;;;;;-141.28;100.00;53356.22;5096752;28;20495;-76
2022/12/14 07:09:03;;;;;;;33.77;17.20;;;;;;;-141.28;100.00;53364.06;5096595;28;20487;-74
2022/12/14 07:11:32;;;;;;;29.67;16.10;;;;;;;-141.28;100.00;53456.41;5104371;28;20924;-74
2022/12/14 07:14:04;;;;;;;30.10;17.03;;;;;;;-141.28;100.00;53464.25;5100576;28;20503;-80
2022/12/14 07:16:32;;;;;;;40.13;17.53;;;;;;;-141.28;100.00;53505.53;5094907;28;20453;-74
2022/12/14 07:19:00;;;;;;;26.47;13.07;;;;;;;-141.28;100.00;53503.56;5098007;28;20460;-76
2022/12/14 07:21:29;;;;;;;29.10;16.17;;;;;;;-141.28;100.00;53590.00;5105311;28;20548;-75
2022/12/14 07:23:59;;;;;;;23.90;14.33;;;;;;;-141.28;100.00;53452.47;5094219;28;20813;-75
2022/12/14 07:26:28;;;;;;;23.93;13.27;;;;;;;-141.28;100.00;53554.63;5094767;28;20472;-74
2022/12/14 07:28:55;;;;;;;35.47;19.10;;;;;;;-141.28;100.00;53609.66;5094972;28;20473;-74
2022/12/14 07:31:24;;;;;;;28.17;15.20;;;;;;;-141.28;100.00;53208.88;5095394;28;20489;-76
2022/12/14 07:33:53;;;;;;;25.50;13.37;;;;;;;-141.28;100.00;53656.81;5100369;28;20440;-77
2022/12/14 07:36:22;;;;;;;26.83;12.87;;;;;;;-141.28;100.00;53155.84;5101945;28;20540;-76
2022/12/14 07:38:52;;;;;;;35.57;14.60;;;;;;;-141.28;100.00;53690.19;5095139;28;20437;-74
2022/12/14 07:41:22;;;;;;;28.07;14.30;;;;;;;-141.28;100.00;53700.03;5094275;28;20445;-78
2022/12/14 07:43:50;;;;;;;22.47;12.63;;;;;;;-141.28;100.00;53645.00;5094096;28;20441;-74
2022/12/14 07:46:20;;;;;;;31.73;17.07;;;;;;;-141.28;100.00;53684.31;5107108;28;20506;-75
2022/12/14 07:48:49;;;;;;;33.27;16.13;;;;;;;-141.28;100.00;53711.81;5094063;28;20507;-75
2022/12/14 07:51:17;;;;;;;38.50;18.93;;;;;;;-141.28;100.00;53662.69;5093743;28;20493;-76
2022/12/14 07:53:45;;;;;;;30.10;14.10;;;;;;;-141.28;100.00;53578.22;5093989;28;21049;-76
2022/12/14 07:56:15;;;;;;;23.10;14.07;;;;;;;-141.28;100.00;53719.66;5107264;28;20473;-75
2022/12/14 07:58:43;;;;;;;25.23;12.47;;;;;;;-141.28;100.00;53613.56;5104385;28;20437;-77
2022/12/14 08:01:12;;;;;;;27.70;14.97;;;;;;;-141.28;100.00;53700.03;5109777;28;20441;-74
2022/12/14 08:03:40;;;;;;;11.43;6.13;;;;;;;-141.28;100.00;53656.81;5093864;28;20446;-78
2022/12/14 08:06:09;;;;;;;28.03;15.93;;;;;;;-141.28;100.00;53688.25;5095210;28;20446;-76
2022/12/14 08:08:36;;;;;;;30.73;16.90;;;;;;;-141.28;100.00;53448.53;5096009;28;20469;-76
2022/12/14 08:11:04;;;;;;;33.63;19.03;;;;;;;-141.28;100.00;53521.25;5093559;28;21045;-77
2022/12/14 08:13:33;;;;;;;35.27;21.30;;;;;;;-141.28;100.00;53660.72;5107043;28;20474;-79
2022/12/14 08:16:03;;;;;;;36.07;20.77;;;;;;;-141.28;100.00;53696.09;5094002;28;20475;-77
2022/12/14 08:18:32;;;;;;;37.97;19.10;;;;;;;-141.28;100.00;53650.91;5097628;28;21011;-78
2022/12/14 08:21:01;;;;;;;32.17;18.93;;;;;;;-141.28;100.00;53688.25;5103010;28;20469;-75
2022/12/14 08:23:31;;;;;;;35.50;21.00;;;;;;;-141.28;100.00;53717.72;5094337;28;20449;-79
2022/12/14 08:26:00;;;;;;;28.03;17.60;;;;;;;-141.28;100.00;53711.81;5093665;28;20956;-76
2022/12/14 08:28:28;;;;;;;29.77;17.90;;;;;;;-141.28;100.00;53311.03;5101248;28;20468;-77
2022/12/14 08:30:57;;;;;;;36.77;21.67;;;;;;;-141.28;100.00;53790.41;5121972;28;20485;-75
2022/12/14 08:33:24;;;;;;;24.50;13.30;;;;;;;-141.28;100.00;53735.38;5133440;28;20432;-75
2022/12/14 08:35:51;;;;;;;30.60;17.17;;;;;;;-141.28;100.00;53711.81;5117808;28;20441;-77
2022/12/14 08:38:19;;;;;;;25.90;13.40;;;;;;;-141.28;100.00;53705.91;5123744;28;20445;-75
2022/12/14 08:40:46;;;;;;;25.27;13.07;;;;;;;-141.28;100.00;53678.41;5126174;28;20461;-74
2022/12/14 08:43:13;;;;;;;24.13;14.33;;;;;;;-141.28;100.00;53613.56;5103883;28;20951;-78
2022/12/14 08:45:40;;;;;;;28.83;16.23;;;;;;;-141.28;100.00;53527.13;5106288;28;20444;-76
2022/12/14 08:48:09;;;;;;;28.43;16.50;;;;;;;-141.28;100.00;53507.47;5113131;28;20829;-79
2022/12/14 08:50:37;;;;;;;27.23;15.20;;;;;;;-141.28;100.00;53483.91;5107615;28;21034;-75
2022/12/14 08:53:04;;;;;;;25.03;14.87;;;;;;;-141.28;100.00;53470.16;5094139;28;20475;-77
2022/12/14 08:55:36;;;;;;;24.77;14.10;;;;;;;-141.28;100.00;53456.41;5106362;28;20437;-78
2022/12/14 08:58:03;;;;;;;24.07;14.33;;;;;;;-141.28;100.00;53519.28;5092679;28;21018;-78
2022/12/14 09:00:30;;;;;;;26.43;15.33;;;;;;;-141.28;100.00;53523.19;5092347;28;20461;-77
2022/12/14 09:02:59;;;;;;;18.07;11.00;;;;;;;-141.28;100.00;53487.84;5106353;28;20438;-75
2022/12/14 09:05:29;;;;;;;25.93;12.03;;;;;;;-141.28;100.00;53444.63;5106300;28;20456;-78
2022/12/14 09:07:57;;;;;;;19.93;10.43;;;;;;;-141.28;100.00;53515.34;5097583;28;20493;-76
2022/12/14 09:10:25;;;;;;;20.10;10.70;;;;;;;-141.28;100.00;53489.81;5112630;28;20533;-75
2022/12/14 09:12:53;;;;;;;17.80;10.07;;;;;;;-141.28;100.00;53444.63;5099538;28;20447;-77
2022/12/14 09:15:20;;;;;;;15.10;8.50;;;;;;;-141.28;100.00;53401.41;5113042;28;20448;-75
2022/12/14 09:17:50;;;;;;;18.80;11.30;;;;;;;-141.28;100.00;53399.44;5112933;28;20500;-76
2022/12/14 09:20:17;;;;;;;19.13;10.83;;;;;;;-141.28;100.00;53371.94;5100013;28;20894;-76
2022/12/14 09:22:46;;;;;;;19.23;10.97;;;;;;;-141.28;100.00;53366.03;5105481;28;20847;-76
2022/12/14 09:25:15;;;;;;;23.03;11.23;;;;;;;-141.28;100.00;53405.31;5092809;28;20445;-74
2022/12/14 09:27:42;;;;;;;21.17;10.70;;;;;;;-141.28;100.00;53375.84;5091886;28;20481;-78
2022/12/14 09:30:11;;;;;;;15.57;8.90;;;;;;;-141.28;100.00;53444.63;5097303;28;20441;-79
2022/12/14 09:32:39;;;;;;;17.07;10.07;;;;;;;-141.28;100.00;53472.13;5111949;28;20440;-76
2022/12/14 09:35:06;;;;;;;22.93;10.90;;;;;;;-141.28;100.00;53460.34;5097264;28;20527;-75
2022/12/14 09:37:34;;;;;;;21.20;11.43;;;;;;;-141.28;100.00;53356.22;5100720;28;20488;-74
2022/12/14 09:40:04;;;;;;;23.43;10.73;;;;;;;-141.28;100.00;53393.53;5096798;28;20441;-76
2022/12/14 09:42:48;;;;;;;27.17;12.53;;;;;;;-141.28;100.00;53373.91;5112220;28;20518;-78
2022/12/14 09:45:22;;;;;;;31.50;13.07;;;;;;;-141.28;100.00;53283.53;5094307;28;20441;-79
2022/12/14 09:47:56;;;;;;;20.30;10.83;;;;;;;-141.28;100.00;53201.03;5091878;28;20442;-78
2022/12/14 09:50:31;;;;;;;23.67;14.73;;;;;;;-141.28;100.00;53126.38;5091915;28;20446;-76
2022/12/14 09:53:01;;;;;;;14.93;8.93;;;;;;;-141.28;100.00;52992.78;5105131;28;20526;-77
2022/12/14 09:55:36;;;;;;;16.70;10.53;;;;;;;-141.28;100.00;52973.16;5091481;28;20442;-74
2022/12/14 09:58:09;;;;;;;17.73;9.17;;;;;;;-141.28;100.00;52880.81;5092029;28;20531;-78
2022/12/14 10:00:43;;;;;;;21.53;11.00;;;;;;;-141.28;100.00;52808.16;5100608;28;20459;-76
2022/12/14 10:03:32;;;;;;;21.87;10.83;;;;;;;-141.28;100.00;52635.31;5111816;28;20885;-75
2022/12/14 10:06:22;;;;;;;14.67;8.70;;;;;;;-141.28;100.00;52521.38;5097535;28;20970;-74
2022/12/14 10:09:01;;;;;;;19.27;10.37;;;;;;;-141.28;100.00;52321.06;5102280;28;20437;-76
2022/12/14 10:11:40;;;;;;;20.77;11.20;;;;;;;-141.28;100.00;51790.84;5101067;28;20585;-74
2022/12/14 10:14:18;;;;;;;17.00;10.00;;;;;;;-141.28;100.00;52234.66;5096748;28;20497;-77
2022/12/14 10:16:56;;;;;;;19.97;10.83;;;;;;;-141.28;100.00;52287.66;5111422;28;20440;-78
2022/12/14 10:19:35;;;;;;;20.40;10.63;;;;;;;-141.28;100.00;52163.94;5098418;28;20448;-79
2022/12/14 10:22:06;;;;;;;20.37;10.33;;;;;;;-141.28;100.00;52309.28;5091325;28;20461;-79
2022/12/14 10:24:40;;;;;;;21.57;12.20;;;;;;;-141.28;100.00;51877.25;5091490;28;20886;-76
2022/12/14 10:27:10;;;;;;;25.50;12.43;;;;;;;-141.28;100.00;52128.59;5091347;28;20626;-76
2022/12/14 10:29:46;;;;;;;19.53;11.07;;;;;;;-141.28;100.00;52095.22;5091205;28;20835;-79
2022/12/14 10:32:20;;;;;;;18.70;11.77;;;;;;;-141.28;100.00;52026.47;5102139;28;20534;-76
2022/12/14 10:34:48;;;;;;;19.77;10.87;;;;;;;-141.28;100.00;52105.03;5099025;28;20457;-81
2022/12/14 10:37:25;;;;;;;24.63;10.53;;;;;;;-141.28;100.00;52124.66;5091270;28;20494;-79
2022/12/14 10:40:13;;;;;;;17.97;9.43;;;;;;;-141.28;100.00;51999.00;5104499;28;20441;-76
2022/12/14 10:42:54;;;;;;;19.73;10.93;;;;;;;-141.28;100.00;51782.97;5091507;28;20487;-75
2022/12/14 10:45:31;;;;;;;17.87;10.33;;;;;;;-141.28;100.00;51574.84;5091498;28;20452;-76
2022/12/14 10:48:21;;;;;;;19.70;11.03;;;;;;;-141.28;100.00;51233.22;5091688;28;20528;-80
2022/12/14 10:50:58;;;;;;;23.60;13.23;;;;;;;-141.28;100.00;51213.56;5095180;28;20441;-75
2022/12/14 10:53:30;;;;;;;16.60;9.67;;;;;;;-141.28;100.00;51109.53;5099313;28;20558;-77
2022/12/14 10:56:01;;;;;;;17.67;9.17;;;;;;;-141.28;100.00;50997.63;5105257;28;20446;-77
2022/12/14 10:58:31;;;;;;;59.10;19.77;;;;;;;-141.28;100.00;50871.97;5108644;28;20456;-75
2022/12/14 11:00:57;;;;;;;32.20;13.67;;;;;;;-141.28;100.00;50771.88;5112249;28;20946;-77
2022/12/14 11:03:28;;;;;;;29.00;15.13;;;;;;;-141.28;100.00;50726.72;5110211;28;20457;-76
2022/12/14 11:06:02;;;;;;;14.50;8.73;;;;;;;-141.28;100.00;50667.81;5107540;28;20494;-77
2022/12/14 11:08:43;;;;;;;8.67;5.00;;;;;;;-141.28;100.00;50658.00;5098460;28;20445;-76
2022/12/14 11:11:15;;;;;;;14.67;8.53;;;;;;;-141.28;100.00;50610.91;5111922;28;20473;-76
2022/12/14 11:13:51;;;;;;;9.00;6.00;;;;;;;-141.28;100.00;50597.16;5098761;28;20462;-76
2022/12/14 11:16:24;;;;;;;10.50;5.77;;;;;;;-141.28;100.00;50577.53;5101572;28;20839;-78
2022/12/14 11:18:58;;;;;;;12.37;7.20;;;;;;;-141.28;100.00;50518.66;5100297;28;20540;-76
2022/12/14 11:21:31;;;;;;;20.93;10.70;;;;;;;-141.28;100.00;50530.41;5102431;28;20520;-76
2022/12/14 11:24:00;;;;;;;12.70;7.27;;;;;;;-141.28;100.00;50532.38;5114390;28;20454;-77
2022/12/14 11:26:33;;;;;;;14.57;7.10;;;;;;;-141.28;100.00;50583.41;5101714;28;20445;-74
2022/12/14 11:29:05;;;;;;;10.97;6.33;;;;;;;-141.28;100.00;50575.56;5115377;28;20484;-76